createdAt,value
2022-09-16T00:03:24.243Z,59.88
2022-09-16T00:08:23.548Z,59.68
2022-09-16T00:13:23.890Z,59.38
2022-09-16T00:18:22.192Z,59.08
2022-09-16T00:23:21.507Z,58.88
2022-09-16T00:28:20.802Z,58.88
2022-09-16T00:33:21.106Z,58.88
2022-09-16T00:38:19.399Z,58.98
2022-09-16T00:43:18.735Z,58.78
2022-09-16T00:48:18.048Z,58.88
2022-09-16T00:53:18.367Z,58.78
2022-09-16T00:58:17.660Z,58.68
2022-09-16T01:03:15.947Z,58.68
2022-09-16T01:08:15.223Z,58.68
2022-09-16T01:13:14.503Z,58.48
2022-09-16T01:18:13.798Z,58.28
2022-09-16T01:23:13.148Z,57.01
2022-09-16T01:28:14.394Z,57.81
2022-09-16T01:33:12.716Z,57.81
2022-09-16T01:38:12.999Z,57.71
2022-09-16T01:43:11.280Z,57.61
2022-09-16T01:48:10.573Z,57.51
2022-09-16T01:53:09.864Z,57.61
2022-09-16T01:58:08.182Z,57.41
2022-09-16T02:03:07.526Z,57.41
2022-09-16T02:08:07.664Z,57.41
2022-09-16T02:13:05.775Z,57.41
2022-09-16T02:18:06.075Z,57.41
2022-09-16T02:23:04.384Z,57.51
2022-09-16T02:28:04.666Z,57.61
2022-09-16T02:33:02.959Z,57.51
2022-09-16T02:38:01.260Z,57.41
2022-09-16T02:43:01.560Z,57.31
2022-09-16T02:48:01.851Z,57.41
2022-09-16T02:53:00.157Z,57.34
2022-09-16T02:57:59.445Z,57.54
2022-09-16T03:02:58.787Z,57.44
2022-09-16T03:07:57.874Z,57.54
2022-09-16T03:12:57.165Z,57.54
2022-09-16T03:17:57.514Z,57.54
2022-09-16T03:22:56.667Z,57.44
2022-09-16T03:27:53.754Z,57.54
2022-09-16T03:32:55.072Z,57.64
2022-09-16T03:37:55.379Z,57.44
2022-09-16T03:42:52.681Z,57.44
2022-09-16T03:47:52.987Z,57.54
2022-09-16T03:52:53.281Z,57.54
2022-09-16T03:57:50.586Z,57.44
2022-09-16T04:02:50.055Z,57.57
2022-09-16T04:07:49.213Z,57.46
2022-09-16T04:12:48.535Z,57.57
2022-09-16T04:17:47.921Z,57.57
2022-09-16T04:22:47.045Z,57.57
2022-09-16T04:27:47.384Z,57.69
2022-09-16T04:32:45.655Z,57.79
2022-09-16T04:37:45.963Z,57.57
2022-09-16T04:42:44.215Z,57.26
2022-09-16T04:47:43.482Z,57.46
2022-09-16T04:52:42.762Z,57.46
2022-09-16T04:57:42.074Z,57.46
2022-09-16T05:02:42.442Z,57.59
2022-09-16T05:07:40.547Z,57.46
2022-09-16T05:12:41.846Z,57.50
2022-09-16T05:17:50.904Z,57.59
2022-09-16T05:22:38.299Z,57.59
2022-09-16T05:27:39.609Z,57.69
2022-09-16T05:32:37.904Z,57.59
2022-09-16T05:37:36.205Z,57.50
2022-09-16T05:42:36.511Z,57.50
2022-09-16T05:47:34.816Z,57.50
2022-09-16T05:52:34.170Z,57.07
2022-09-16T05:57:34.296Z,57.19
2022-09-16T06:02:33.658Z,56.96
2022-09-16T06:07:32.806Z,57.17
2022-09-16T06:12:31.119Z,57.17
2022-09-16T06:17:31.427Z,57.50
2022-09-16T06:22:30.730Z,57.50
2022-09-16T06:27:29.051Z,57.39
2022-09-16T06:32:28.428Z,57.39
2022-09-16T06:37:28.552Z,57.59
2022-09-16T06:42:26.863Z,57.59
2022-09-16T06:47:26.221Z,57.50
2022-09-16T06:52:25.305Z,57.39
2022-09-16T06:57:24.625Z,56.96
2022-09-16T07:02:23.880Z,56.67
2022-09-16T07:07:22.970Z,56.67
2022-09-16T07:12:23.301Z,56.67
2022-09-16T07:17:21.614Z,56.67
2022-09-16T07:22:21.908Z,56.14
2022-09-16T07:27:20.191Z,56.87
2022-09-16T07:32:19.477Z,56.74
2022-09-16T07:37:18.795Z,56.54
2022-09-16T07:42:18.081Z,56.34
2022-09-16T07:47:21.997Z,56.11
2022-09-16T07:52:18.532Z,56.21
2022-09-16T07:57:16.833Z,55.91
2022-09-16T08:02:15.245Z,56.01
2022-09-16T08:07:15.386Z,56.21
2022-09-16T08:12:12.691Z,55.62
2022-09-16T08:17:12.994Z,55.62
2022-09-16T08:22:12.296Z,55.32
2022-09-16T08:27:13.610Z,55.62
2022-09-16T08:32:10.949Z,55.51
2022-09-16T08:37:10.068Z,55.62
2022-09-16T08:42:10.393Z,55.32
2022-09-16T08:47:08.673Z,55.32
2022-09-16T08:52:09.033Z,55.51
2022-09-16T08:57:07.396Z,54.82
2022-09-16T09:02:09.446Z,55.29
2022-09-16T09:07:07.857Z,54.71
2022-09-16T09:12:06.312Z,54.69
2022-09-16T09:17:04.673Z,54.19
2022-09-16T09:22:04.781Z,54.39
2022-09-16T09:27:03.119Z,54.79
2022-09-16T09:32:03.481Z,54.49
2022-09-16T09:37:00.619Z,53.69
2022-09-16T09:42:00.769Z,53.39
2022-09-16T09:47:01.909Z,52.89
2022-09-16T09:52:00.267Z,51.40
2022-09-16T09:56:59.420Z,52.19
2022-09-16T10:01:59.785Z,51.79
2022-09-16T10:06:56.777Z,51.40
2022-09-16T10:11:56.073Z,52.59
2022-09-16T10:16:56.454Z,52.59
2022-09-16T10:21:54.589Z,52.00
2022-09-16T10:26:55.752Z,52.19
2022-09-16T10:31:53.942Z,51.47
2022-09-16T10:36:53.094Z,51.17
2022-09-16T10:41:50.817Z,50.67
2022-09-16T10:46:49.638Z,51.97
2022-09-16T10:51:49.875Z,50.37
2022-09-16T10:56:52.131Z,49.87
2022-09-16T11:01:48.954Z,50.77
2022-09-16T11:06:49.904Z,50.67
2022-09-16T11:11:46.733Z,50.57
2022-09-16T11:16:46.019Z,49.35
2022-09-16T11:21:45.329Z,48.95
2022-09-16T11:26:44.537Z,49.55
2022-09-16T11:31:43.863Z,48.05
2022-09-16T11:36:41.955Z,47.36
2022-09-16T11:41:41.214Z,46.58
2022-09-16T11:46:41.490Z,47.66
2022-09-16T11:51:40.850Z,47.16
2022-09-16T11:56:40.089Z,47.66
2022-09-16T12:01:39.394Z,47.88
2022-09-16T12:06:39.890Z,48.08
2022-09-16T12:11:36.841Z,48.28
2022-09-16T12:16:37.093Z,48.90
2022-09-16T12:21:36.267Z,49.60
2022-09-16T12:26:35.476Z,49.92
2022-09-16T12:31:34.767Z,51.22
2022-09-16T12:36:34.151Z,51.82
2022-09-16T12:41:33.246Z,53.12
2022-09-16T12:46:32.648Z,52.55
2022-09-16T12:51:31.641Z,53.02
2022-09-16T12:56:29.939Z,53.42
2022-09-16T13:01:30.216Z,53.61
2022-09-16T13:06:30.478Z,52.82
2022-09-16T13:12:16.643Z,53.92
2022-09-16T13:16:26.966Z,52.32
2022-09-16T13:21:26.216Z,53.84
2022-09-16T13:26:26.623Z,53.84
2022-09-16T13:31:26.161Z,53.84
2022-09-16T13:36:24.784Z,53.64
2022-09-16T13:41:23.960Z,53.84
2022-09-16T13:46:22.131Z,53.74
2022-09-16T13:51:22.311Z,54.04
2022-09-16T13:56:22.497Z,54.06
2022-09-16T14:01:22.683Z,54.06
2022-09-16T14:06:19.827Z,53.57
2022-09-16T14:11:19.229Z,54.06
2022-09-16T14:16:21.528Z,53.87
2022-09-16T14:21:17.658Z,53.57
2022-09-16T14:26:16.984Z,53.77
2022-09-16T14:31:16.191Z,53.87
2022-09-16T14:36:16.385Z,53.67
2022-09-16T14:41:14.560Z,53.87
2022-09-16T14:46:13.860Z,53.77
2022-09-16T14:51:13.019Z,54.06
2022-09-16T14:56:13.143Z,53.87
2022-09-16T15:01:13.230Z,53.77
2022-09-16T15:06:10.758Z,54.10
2022-09-16T15:11:19.358Z,53.89
2022-09-16T15:16:09.293Z,54.19
2022-09-16T15:21:07.438Z,54.42
2022-09-16T15:26:07.567Z,54.69
2022-09-16T15:31:05.919Z,54.10
2022-09-16T15:36:06.046Z,54.49
2022-09-16T15:41:06.183Z,54.77
2022-09-16T15:46:05.553Z,53.84
2022-09-16T15:51:04.695Z,53.94
2022-09-16T15:56:04.023Z,52.79
2022-09-16T16:01:04.394Z,49.23
2022-09-16T16:06:01.405Z,47.17
2022-09-16T16:11:00.787Z,46.88
2022-09-16T16:15:59.974Z,44.59
2022-09-16T16:20:58.094Z,44.68
2022-09-16T16:25:58.254Z,45.20
2022-09-16T16:30:56.585Z,44.27
2022-09-16T16:35:57.770Z,44.89
2022-09-16T16:40:58.087Z,44.07
2022-09-16T16:45:55.338Z,44.17
2022-09-16T16:50:55.505Z,42.96
2022-09-16T16:55:53.819Z,43.48
2022-09-16T17:00:53.088Z,43.28
2022-09-16T17:05:54.374Z,42.96
2022-09-16T17:10:51.645Z,42.05
2022-09-16T17:15:50.942Z,42.66
2022-09-16T17:20:50.279Z,43.18
2022-09-16T17:25:49.614Z,43.57
2022-09-16T17:30:48.964Z,44.59
2022-09-16T17:35:50.085Z,43.49
2022-09-16T17:40:47.351Z,45.12
2022-09-16T17:45:47.664Z,45.34
2022-09-16T17:50:45.787Z,45.12
2022-09-16T17:55:46.126Z,46.14
2022-09-16T18:00:44.432Z,44.90
2022-09-16T18:05:43.764Z,45.52
2022-09-16T18:10:42.118Z,44.78
2022-09-16T18:15:42.250Z,50.15
2022-09-16T18:20:40.605Z,56.87
2022-09-16T18:25:40.723Z,58.26
2022-09-16T18:30:40.036Z,61.58
2022-09-16T18:35:39.495Z,60.35
2022-09-16T18:40:40.938Z,60.42
2022-09-16T18:45:37.902Z,62.69
2022-09-16T18:50:37.185Z,64.26
2022-09-16T18:55:37.428Z,62.08
2022-09-16T19:00:35.668Z,58.16
2022-09-16T19:05:34.830Z,58.29
2022-09-16T19:10:35.007Z,58.56
2022-09-16T19:15:34.243Z,56.80
2022-09-16T19:20:33.410Z,59.58
2022-09-16T19:25:31.610Z,58.67
2022-09-16T19:30:31.897Z,60.64
2022-09-16T19:35:31.428Z,61.98
2022-09-16T19:40:29.330Z,61.44
2022-09-16T19:45:28.366Z,61.34
2022-09-16T19:50:28.541Z,60.84
2022-09-16T19:55:27.702Z,62.12
2022-09-16T20:00:36.721Z,59.05
2022-09-16T20:05:25.116Z,59.00
2022-09-16T20:10:23.308Z,60.13
2022-09-16T20:15:23.487Z,61.17
2022-09-16T20:20:24.683Z,59.00
2022-09-16T20:25:23.682Z,58.93
2022-09-16T20:30:21.009Z,59.33
2022-09-16T20:35:20.226Z,59.26
2022-09-16T20:40:19.540Z,57.46
2022-09-16T20:45:19.601Z,59.08
2022-09-16T20:50:17.804Z,56.44
2022-09-16T20:55:17.147Z,58.58
2022-09-16T21:00:17.316Z,59.08
2022-09-16T21:05:15.456Z,58.53
2022-09-16T21:10:15.656Z,57.39
2022-09-16T21:15:14.855Z,57.42
2022-09-16T21:20:13.037Z,53.61
2022-09-16T21:25:12.193Z,51.00
2022-09-16T21:30:11.360Z,48.02
2022-09-16T21:35:15.524Z,39.51
2022-09-16T21:40:09.775Z,44.46
2022-09-16T21:45:09.982Z,45.15
2022-09-16T21:50:08.133Z,47.11
2022-09-16T21:55:07.286Z,48.57
2022-09-16T22:00:06.456Z,54.50
2022-09-16T22:05:06.618Z,57.29
2022-09-16T22:10:04.824Z,58.35
2022-09-16T22:15:03.997Z,57.15
2022-09-16T22:20:03.192Z,53.22
2022-09-16T22:25:02.437Z,51.02
2022-09-16T22:30:01.606Z,52.27
2022-09-16T22:35:03.774Z,55.25
2022-09-16T22:40:02.007Z,56.06
2022-09-16T22:45:00.210Z,55.45
2022-09-16T22:49:58.370Z,55.79
2022-09-16T22:54:58.554Z,56.74
2022-09-16T22:59:56.751Z,56.82
2022-09-16T23:04:55.949Z,50.96
2022-09-16T23:09:56.128Z,49.95
2022-09-16T23:14:55.309Z,44.59
2022-09-16T23:19:53.496Z,43.85
2022-09-16T23:24:52.738Z,41.61
2022-09-16T23:29:52.879Z,41.02
2022-09-16T23:34:52.057Z,41.41
2022-09-16T23:39:51.254Z,40.82
2022-09-16T23:44:50.438Z,40.72
2022-09-16T23:49:49.774Z,39.40
2022-09-16T23:54:47.921Z,40.09
2022-09-16T23:59:47.092Z,40.09
